Time;durP1;ratioP1;P1;durP2;ratioP2;P2;SDS_P1;SDS_P2;PMS_P1;PMS_P2;Temp;Humidity;BMP_temperature;BMP_pressure;BME280_temperature;BME280_humidity;BME280_pressure;Samples;Min_cycle;Max_cycle;Signal;HPM_P1;HPM_P2
2022/07/11 00:01:49;;;;;;;3.90;2.00;;;;;;;22.02;53.26;99593.63;5103567;28;20044;-68
2022/07/11 00:04:15;;;;;;;2.25;1.60;;;;;;;21.96;53.38;99600.81;5103627;28;20027;-68
2022/07/11 00:06:40;;;;;;;4.47;2.20;;;;;;;21.92;53.58;99599.66;5103540;28;20027;-68
2022/07/11 00:09:06;;;;;;;2.03;1.83;;;;;;;21.98;53.68;99600.56;5103518;28;20028;-68
2022/07/11 00:11:32;;;;;;;4.43;1.92;;;;;;;21.92;53.74;99591.56;5102986;28;20036;-67
2022/07/11 00:13:57;;;;;;;4.25;2.40;;;;;;;21.83;54.33;99597.53;5101415;28;20027;-68
2022/07/11 00:16:23;;;;;;;3.25;2.15;;;;;;;21.48;55.19;99586.84;5103369;28;20324;-68
2022/07/11 00:18:48;;;;;;;3.05;2.00;;;;;;;21.48;55.28;99587.66;5103308;28;20220;-68
2022/07/11 00:21:14;;;;;;;3.17;2.15;;;;;;;21.25;56.09;99585.81;5101874;28;20023;-68
2022/07/11 00:23:39;;;;;;;6.28;2.63;;;;;;;21.15;56.21;99598.19;5102825;28;20032;-67
2022/07/11 00:26:05;;;;;;;3.28;2.30;;;;;;;20.95;56.33;99588.59;5102004;28;20028;-67
2022/07/11 00:28:30;;;;;;;5.57;2.30;;;;;;;21.03;55.91;99593.63;5101469;28;20386;-67
2022/07/11 00:30:56;;;;;;;3.45;1.77;;;;;;;21.15;55.53;99598.19;5102245;28;20032;-68
2022/07/11 00:33:21;;;;;;;3.97;2.03;;;;;;;21.03;55.83;99600.88;5102181;28;20240;-68
2022/07/11 00:35:47;;;;;;;1.90;1.80;;;;;;;21.07;55.85;99598.53;5102935;28;20356;-68
2022/07/11 00:38:13;;;;;;;2.22;2.00;;;;;;;20.93;56.17;99600.63;5101152;28;20020;-68
2022/07/11 00:40:38;;;;;;;3.05;2.58;;;;;;;20.86;56.75;99603.44;5104003;28;20051;-68
2022/07/11 00:43:04;;;;;;;4.55;2.33;;;;;;;21.00;56.61;99612.13;5103765;28;20039;-68
2022/07/11 00:45:30;;;;;;;6.18;2.40;;;;;;;20.79;57.13;99599.19;5102516;28;20233;-68
2022/07/11 00:47:58;;;;;;;6.68;2.25;;;;;;;20.77;57.34;99610.19;5103157;28;20050;-68
2022/07/11 00:50:25;;;;;;;4.57;2.20;;;;;;;20.80;57.74;99612.41;5104175;28;20035;-68
2022/07/11 00:52:55;;;;;;;4.63;2.30;;;;;;;21.03;57.06;99611.66;5104698;28;20024;-68
2022/07/11 00:55:21;;;;;;;2.88;1.98;;;;;;;20.97;57.10;99613.41;5102853;28;20035;-68
2022/07/11 00:57:48;;;;;;;2.50;2.08;;;;;;;20.59;58.36;99611.09;5102979;28;20059;-68
2022/07/11 01:00:14;;;;;;;3.35;1.95;;;;;;;20.04;60.24;99610.38;5100616;28;20044;-68
2022/07/11 01:02:40;;;;;;;4.00;2.03;;;;;;;20.01;60.64;99614.34;5101521;28;20356;-68
2022/07/11 01:05:05;;;;;;;2.50;2.20;;;;;;;19.98;60.72;99592.47;5102895;28;20027;-68
2022/07/11 01:07:32;;;;;;;3.80;2.25;;;;;;;19.86;61.07;99602.34;5102103;28;20051;-68
2022/07/11 01:09:58;;;;;;;3.40;2.33;;;;;;;20.11;60.14;99603.06;5100529;28;20028;-68
2022/07/11 01:12:24;;;;;;;3.53;2.05;;;;;;;19.89;60.75;99612.66;5103616;28;20028;-68
2022/07/11 01:14:59;;;;;;;5.18;2.33;;;;;;;20.06;60.49;99608.28;5116257;28;20044;-69
2022/07/11 01:17:24;;;;;;;7.78;2.30;;;;;;;20.22;59.82;99607.66;5104192;28;20031;-68
2022/07/11 01:19:50;;;;;;;5.15;2.03;;;;;;;20.40;59.36;99612.19;5102216;28;20032;-68
2022/07/11 01:22:20;;;;;;;3.85;2.15;;;;;;;20.49;59.08;99607.31;5103644;28;20036;-68
2022/07/11 01:24:46;;;;;;;2.00;1.80;;;;;;;20.57;58.20;99607.81;5100244;28;20032;-68
2022/07/11 01:27:12;;;;;;;4.35;2.20;;;;;;;20.67;57.61;99608.06;5101976;28;20077;-68
2022/07/11 01:29:39;;;;;;;3.80;2.20;;;;;;;20.87;56.94;99602.38;5103315;28;20415;-68
2022/07/11 01:32:07;;;;;;;4.30;2.13;;;;;;;20.67;57.07;99597.31;5101747;28;20213;-68
2022/07/11 01:34:32;;;;;;;4.90;2.05;;;;;;;20.70;56.82;99598.72;5104696;28;20247;-68
2022/07/11 01:36:57;;;;;;;3.28;1.73;;;;;;;20.66;57.04;99602.91;5100527;28;20080;-68
2022/07/11 01:39:23;;;;;;;4.95;2.13;;;;;;;20.66;56.89;99605.59;5101450;28;20040;-68
2022/07/11 01:41:49;;;;;;;4.60;2.10;;;;;;;20.42;57.58;99603.91;5102552;28;20020;-68
2022/07/11 01:44:14;;;;;;;2.10;1.90;;;;;;;20.56;57.29;99608.03;5102280;28;20032;-68
2022/07/11 01:46:39;;;;;;;2.83;2.13;;;;;;;20.84;56.25;99615.50;5105590;28;20028;-68
2022/07/11 01:49:05;;;;;;;3.13;1.92;;;;;;;20.92;56.08;99612.47;5105646;28;20225;-68
2022/07/11 01:51:31;;;;;;;2.67;1.73;;;;;;;20.66;56.84;99616.34;5106117;28;20043;-68
2022/07/11 01:53:57;;;;;;;2.33;2.00;;;;;;;20.81;56.70;99622.16;5104801;28;20024;-68
2022/07/11 01:56:23;;;;;;;2.25;1.90;;;;;;;20.97;56.18;99629.53;5106210;28;20040;-68
2022/07/11 01:58:48;;;;;;;4.10;1.90;;;;;;;21.18;55.43;99636.22;5105366;28;20028;-68
2022/07/11 02:01:14;;;;;;;4.13;1.98;;;;;;;21.26;55.33;99635.09;5104739;28;20039;-68
2022/07/11 02:03:40;;;;;;;3.47;2.00;;;;;;;20.93;56.44;99623.00;5105566;28;20032;-68
2022/07/11 02:06:06;;;;;;;2.55;1.90;;;;;;;20.67;57.35;99626.06;5105621;28;20067;-68
2022/07/11 02:08:32;;;;;;;3.30;2.00;;;;;;;20.52;58.14;99633.75;5106061;28;20253;-68
2022/07/11 02:10:57;;;;;;;4.78;2.30;;;;;;;20.46;58.30;99643.56;5105429;28;20535;-68
2022/07/11 02:13:23;;;;;;;3.25;2.08;;;;;;;20.46;58.41;99630.09;5105670;28;20028;-68
2022/07/11 02:15:50;;;;;;;3.58;2.20;;;;;;;20.20;59.41;99627.75;5105796;28;20074;-68
2022/07/11 02:18:17;;;;;;;3.00;2.40;;;;;;;20.21;59.27;99630.22;5104461;28;20089;-68
2022/07/11 02:20:45;;;;;;;5.80;2.30;;;;;;;20.20;59.04;99625.06;5103615;28;20043;-68
2022/07/11 02:23:12;;;;;;;4.07;2.47;;;;;;;20.06;59.44;99606.44;5103822;28;20039;-68
2022/07/11 02:25:38;;;;;;;7.38;2.30;;;;;;;20.13;59.46;99618.97;5105442;28;20373;-68
2022/07/11 02:28:06;;;;;;;7.03;2.45;;;;;;;20.37;58.53;99631.44;5103170;28;20077;-69
2022/07/11 02:30:32;;;;;;;2.83;2.38;;;;;;;20.59;57.49;99635.28;5105643;28;20099;-68
2022/07/11 02:32:57;;;;;;;2.30;1.90;;;;;;;20.76;56.85;99642.69;5106137;28;20069;-68
2022/07/11 02:35:23;;;;;;;5.10;2.25;;;;;;;20.89;56.48;99645.22;5103841;28;20036;-68
2022/07/11 02:37:48;;;;;;;4.07;2.30;;;;;;;20.54;57.17;99645.91;5105498;28;20054;-68
2022/07/11 02:40:14;;;;;;;3.60;2.00;;;;;;;20.24;58.46;99653.13;5105220;28;20032;-68
2022/07/11 02:42:39;;;;;;;3.60;1.98;;;;;;;20.45;57.67;99638.41;5104948;28;20023;-68
2022/07/11 02:45:07;;;;;;;5.78;2.08;;;;;;;20.65;57.09;99657.78;5106105;28;20210;-68
2022/07/11 02:47:33;;;;;;;5.00;2.10;;;;;;;20.67;57.32;99658.34;5104470;28;20051;-68
2022/07/11 02:49:59;;;;;;;4.07;2.47;;;;;;;20.53;57.50;99664.97;5108494;28;20036;-68
2022/07/11 02:52:24;;;;;;;7.85;2.35;;;;;;;20.68;57.03;99655.44;5105961;28;20036;-68
2022/07/11 02:54:49;;;;;;;2.75;2.03;;;;;;;20.60;57.22;99652.25;5104635;28;20203;-68
2022/07/11 02:57:15;;;;;;;3.75;1.83;;;;;;;20.69;56.65;99662.47;5101467;28;20020;-68
2022/07/11 02:59:40;;;;;;;4.90;2.25;;;;;;;20.60;56.53;99660.31;5102997;28;20035;-68
2022/07/11 03:02:06;;;;;;;5.15;2.10;;;;;;;20.69;56.49;99669.72;5105830;28;20040;-68
2022/07/11 03:04:32;;;;;;;5.07;2.35;;;;;;;20.70;56.13;99671.34;5104025;28;20043;-68
2022/07/11 03:06:58;;;;;;;5.97;2.22;;;;;;;20.74;55.17;99672.53;5105403;28;20024;-68
2022/07/11 03:09:23;;;;;;;4.15;2.30;;;;;;;20.53;55.35;99668.50;5104686;28;20137;-68
2022/07/11 03:11:50;;;;;;;3.65;2.67;;;;;;;20.35;55.93;99676.56;5103459;28;20217;-68
2022/07/11 03:14:16;;;;;;;5.78;2.30;;;;;;;20.56;55.01;99665.34;5103964;28;20301;-68
2022/07/11 03:16:42;;;;;;;7.15;2.20;;;;;;;20.47;55.27;99673.97;5104858;28;20040;-68
2022/07/11 03:19:07;;;;;;;3.67;2.00;;;;;;;20.59;54.64;99667.56;5103476;28;20039;-68
2022/07/11 03:21:33;;;;;;;2.38;1.90;;;;;;;20.39;55.56;99677.78;5102362;28;20036;-68
2022/07/11 03:23:58;;;;;;;4.25;2.30;;;;;;;20.51;54.98;99675.16;5103370;28;20024;-68
2022/07/11 03:26:24;;;;;;;8.32;2.33;;;;;;;20.59;54.66;99672.97;5106361;28;20645;-68
2022/07/11 03:28:49;;;;;;;5.40;2.00;;;;;;;20.62;54.38;99683.25;5101900;28;20217;-68
2022/07/11 03:31:15;;;;;;;3.05;2.13;;;;;;;20.78;53.62;99679.09;5101065;28;20229;-68
2022/07/11 03:33:40;;;;;;;3.47;1.98;;;;;;;20.45;54.52;99686.81;5102293;28;20036;-68
2022/07/11 03:36:06;;;;;;;5.20;2.03;;;;;;;20.60;54.18;99679.16;5103394;28;20263;-68
2022/07/11 03:38:31;;;;;;;4.05;1.77;;;;;;;20.68;53.91;99681.53;5101424;28;20031;-68
2022/07/11 03:40:57;;;;;;;4.05;2.10;;;;;;;20.77;53.73;99676.63;5103083;28;20056;-68
2022/07/11 03:43:23;;;;;;;4.95;2.40;;;;;;;20.77;53.85;99687.41;5104288;28;20039;-68
2022/07/11 03:45:48;;;;;;;6.07;2.42;;;;;;;20.63;53.70;99676.81;5103542;28;20036;-68
2022/07/11 03:48:14;;;;;;;6.30;2.30;;;;;;;20.64;54.17;99683.84;5101880;28;20361;-68
2022/07/11 03:50:39;;;;;;;5.28;2.20;;;;;;;20.76;53.37;99694.66;5102025;28;20040;-68
2022/07/11 03:53:05;;;;;;;7.57;2.10;;;;;;;20.80;53.30;99701.22;5104810;28;20030;-68
2022/07/11 03:55:32;;;;;;;3.65;2.05;;;;;;;21.04;52.83;99705.63;5104584;28;20026;-68
2022/07/11 03:57:57;;;;;;;4.05;1.90;;;;;;;20.94;52.97;99704.56;5103473;28;20035;-68
2022/07/11 04:00:23;;;;;;;6.57;2.13;;;;;;;20.91;52.79;99697.75;5104836;28;20032;-68
2022/07/11 04:02:49;;;;;;;2.60;1.92;;;;;;;20.80;52.92;99700.41;5103577;28;20120;-68
2022/07/11 04:05:15;;;;;;;7.47;2.20;;;;;;;21.04;52.56;99713.72;5102856;28;20028;-68
2022/07/11 04:07:42;;;;;;;4.78;2.25;;;;;;;21.05;52.47;99695.69;5103587;28;20031;-68
2022/07/11 04:10:07;;;;;;;6.47;1.70;;;;;;;21.02;52.74;99707.75;5103597;28;20106;-68
2022/07/11 04:12:33;;;;;;;5.20;2.25;;;;;;;20.94;53.07;99691.91;5102679;28;20032;-68
2022/07/11 04:14:58;;;;;;;4.97;2.28;;;;;;;21.20;52.16;99703.31;5101292;28;20040;-68
2022/07/11 04:17:24;;;;;;;2.78;1.85;;;;;;;21.18;52.03;99697.34;5102813;28;20023;-68
2022/07/11 04:19:50;;;;;;;3.53;2.10;;;;;;;21.20;52.06;99706.84;5100741;28;20024;-68
2022/07/11 04:22:15;;;;;;;6.60;2.40;;;;;;;21.16;52.47;99699.44;5103902;28;20028;-68
2022/07/11 04:24:41;;;;;;;7.18;1.85;;;;;;;21.38;51.94;99705.13;5102521;28;20199;-68
2022/07/11 04:27:06;;;;;;;4.07;1.67;;;;;;;21.48;51.65;99706.19;5103721;28;20043;-68
2022/07/11 04:29:32;;;;;;;5.65;1.80;;;;;;;21.77;51.07;99711.69;5101922;28;20047;-68
2022/07/11 04:31:57;;;;;;;2.63;1.67;;;;;;;21.98;50.62;99711.91;5103331;28;20039;-68
2022/07/11 04:34:23;;;;;;;3.72;1.42;;;;;;;22.24;50.16;99721.38;5102030;28;20020;-68
2022/07/11 04:36:48;;;;;;;6.28;1.70;;;;;;;22.21;50.33;99715.66;5101708;28;20022;-68
2022/07/11 04:39:14;;;;;;;6.70;1.70;;;;;;;22.30;50.01;99722.31;5100889;28;20027;-68
2022/07/11 04:41:39;;;;;;;3.15;1.45;;;;;;;22.47;49.82;99720.50;5103227;28;20045;-68
2022/07/11 04:44:05;;;;;;;5.25;1.80;;;;;;;22.60;49.30;99705.91;5104295;28;20047;-68
2022/07/11 04:46:31;;;;;;;6.82;1.60;;;;;;;22.67;49.16;99719.25;5103147;28;20428;-68
2022/07/11 04:48:57;;;;;;;5.22;1.80;;;;;;;23.00;48.37;99724.78;5102634;28;20372;-68
2022/07/11 04:51:26;;;;;;;4.28;1.70;;;;;;;22.94;48.26;99725.75;5102947;28;20090;-68
2022/07/11 04:53:52;;;;;;;5.13;1.73;;;;;;;23.13;48.15;99720.94;5102891;28;20363;-68
2022/07/11 04:56:17;;;;;;;4.35;1.60;;;;;;;23.18;47.78;99727.25;5102929;28;20195;-68
2022/07/11 04:58:43;;;;;;;5.45;1.73;;;;;;;23.45;46.85;99723.88;5103551;28;20024;-69
2022/07/11 05:01:09;;;;;;;6.90;1.48;;;;;;;23.63;46.37;99736.34;5103857;28;20044;-69
2022/07/11 05:03:34;;;;;;;3.92;1.48;;;;;;;23.75;46.42;99728.97;5105569;28;20032;-68
2022/07/11 05:06:00;;;;;;;3.88;1.27;;;;;;;23.85;45.45;99731.81;5102612;28;20043;-69
2022/07/11 05:08:26;;;;;;;3.35;1.38;;;;;;;23.96;45.65;99738.22;5102294;28;20085;-68
2022/07/11 05:10:51;;;;;;;4.03;1.25;;;;;;;23.96;45.04;99735.50;5101458;28;20039;-69
2022/07/11 05:13:17;;;;;;;4.43;1.45;;;;;;;24.25;44.53;99745.09;5102140;28;20205;-69
2022/07/11 05:15:44;;;;;;;2.25;1.27;;;;;;;24.33;44.58;99744.69;5102076;28;20242;-69
2022/07/11 05:18:09;;;;;;;3.60;1.80;;;;;;;24.46;43.90;99741.59;5103304;28;20043;-68
2022/07/11 05:20:35;;;;;;;4.03;1.60;;;;;;;24.59;43.33;99751.22;5102708;28;20345;-69
2022/07/11 05:23:00;;;;;;;2.92;1.45;;;;;;;24.68;43.22;99741.56;5107135;28;20090;-68
2022/07/11 05:25:25;;;;;;;2.25;1.10;;;;;;;24.97;42.30;99747.63;5106145;28;20035;-68
2022/07/11 05:27:51;;;;;;;4.30;1.50;;;;;;;24.93;42.01;99746.44;5106477;28;20103;-68
2022/07/11 05:30:17;;;;;;;3.22;1.60;;;;;;;24.84;42.10;99739.84;5104897;28;20051;-68
2022/07/11 05:32:42;;;;;;;9.85;1.73;;;;;;;24.98;41.77;99748.44;5105628;28;20301;-68
2022/07/11 05:35:08;;;;;;;3.08;1.27;;;;;;;25.20;41.48;99749.19;5102852;28;20036;-67
2022/07/11 05:37:34;;;;;;;1.98;1.30;;;;;;;25.24;41.14;99747.59;5105897;28;20031;-68
2022/07/11 05:39:59;;;;;;;6.18;1.65;;;;;;;25.27;41.41;99749.78;5108169;28;20031;-68
2022/07/11 05:42:25;;;;;;;3.10;1.75;;;;;;;25.40;41.35;99745.81;5105475;28;20051;-69
2022/07/11 05:44:50;;;;;;;5.68;1.83;;;;;;;25.67;40.44;99745.78;5107326;28;20362;-69
2022/07/11 05:47:17;;;;;;;6.32;2.13;;;;;;;25.43;39.63;99739.88;5105457;28;20024;-68
2022/07/11 05:49:42;;;;;;;8.35;2.95;;;;;;;25.41;40.06;99744.75;5106066;28;20321;-69
2022/07/11 05:52:08;;;;;;;5.70;2.42;;;;;;;25.50;39.52;99748.59;5107106;28;20030;-68
2022/07/11 05:54:34;;;;;;;5.93;2.15;;;;;;;25.26;40.67;99752.75;5102986;28;20229;-69
2022/07/11 05:57:01;;;;;;;7.22;1.92;;;;;;;25.42;39.80;99757.22;5103452;28;20028;-68
2022/07/11 05:59:26;;;;;;;6.43;1.70;;;;;;;25.73;39.42;99755.59;5107711;28;20084;-68
2022/07/11 06:01:52;;;;;;;4.80;1.33;;;;;;;25.95;39.13;99763.59;5107537;28;20091;-69
2022/07/11 06:04:17;;;;;;;9.07;1.73;;;;;;;25.88;39.27;99769.25;5110866;28;20039;-68
2022/07/11 06:06:43;;;;;;;1.85;1.20;;;;;;;26.22;38.31;99772.44;5121569;28;20237;-69
2022/07/11 06:09:08;;;;;;;5.75;1.50;;;;;;;26.44;38.11;99768.78;5120918;28;20034;-69
2022/07/11 06:11:34;;;;;;;5.28;1.20;;;;;;;26.48;37.47;99775.31;5120881;28;20031;-69
2022/07/11 06:13:59;;;;;;;10.48;1.30;;;;;;;26.70;37.05;99774.03;5125536;28;20088;-68
2022/07/11 06:16:25;;;;;;;4.60;1.33;;;;;;;26.71;36.31;99783.81;5125462;28;20064;-68
2022/07/11 06:18:53;;;;;;;3.35;1.40;;;;;;;26.50;36.56;99775.84;5125135;28;20066;-68
2022/07/11 06:21:20;;;;;;;3.25;1.33;;;;;;;26.76;36.45;99784.91;5124083;28;20405;-68
2022/07/11 06:23:46;;;;;;;3.75;1.58;;;;;;;26.78;36.79;99785.47;5125189;28;20044;-69
2022/07/11 06:26:11;;;;;;;3.53;1.10;;;;;;;26.58;36.40;99778.06;5123656;28;20104;-69
2022/07/11 06:28:38;;;;;;;3.05;1.33;;;;;;;26.92;36.27;99778.44;5125377;28;20044;-69
2022/07/11 06:31:03;;;;;;;6.63;1.20;;;;;;;26.46;36.21;99744.88;5118136;28;20098;-69
2022/07/11 06:33:29;;;;;;;3.25;1.05;;;;;;;26.97;35.85;99778.44;5123734;28;20069;-69
2022/07/11 06:35:54;;;;;;;7.15;2.08;;;;;;;26.92;36.32;99773.81;5122648;28;20036;-69
2022/07/11 06:38:20;;;;;;;3.90;1.20;;;;;;;27.24;35.54;99775.53;5121614;28;20032;-68
2022/07/11 06:40:46;;;;;;;7.90;1.10;;;;;;;27.89;34.15;99774.72;5124075;28;20031;-69
2022/07/11 06:43:12;;;;;;;3.50;1.33;;;;;;;27.95;33.17;99776.34;5120084;28;20059;-69
2022/07/11 06:45:38;;;;;;;5.93;1.10;;;;;;;27.55;32.46;99771.75;5119864;28;20036;-69
2022/07/11 06:48:04;;;;;;;3.78;1.38;;;;;;;27.63;32.49;99773.94;5117334;28;20067;-69
2022/07/11 06:50:30;;;;;;;2.15;1.15;;;;;;;27.71;32.07;99761.69;5118103;28;20031;-69
2022/07/11 06:52:56;;;;;;;4.60;1.13;;;;;;;27.84;31.46;99766.56;5123851;28;20039;-69
2022/07/11 06:55:22;;;;;;;3.10;1.17;;;;;;;28.03;31.78;99774.97;5122736;28;20036;-69
2022/07/11 06:57:49;;;;;;;4.40;0.85;;;;;;;27.91;30.76;99775.25;5123709;28;20292;-69
2022/07/11 07:00:15;;;;;;;1.85;1.23;;;;;;;28.00;31.11;99767.34;5123610;28;20069;-69
2022/07/11 07:02:41;;;;;;;7.00;1.38;;;;;;;28.32;30.91;99771.66;5123422;28;20039;-69
2022/07/11 07:05:07;;;;;;;2.92;0.90;;;;;;;28.42;30.57;99772.44;5123546;28;20050;-69
2022/07/11 07:07:32;;;;;;;5.28;1.10;;;;;;;28.46;30.43;99770.78;5116913;28;20031;-69
2022/07/11 07:09:57;;;;;;;4.93;1.00;;;;;;;28.68;30.64;99780.50;5121457;28;20028;-69
2022/07/11 07:12:23;;;;;;;0.73;0.73;;;;;;;28.72;30.42;99765.22;5115016;28;20028;-69
2022/07/11 07:14:49;;;;;;;1.58;0.93;;;;;;;28.72;29.65;99776.94;5119243;28;20049;-69
2022/07/11 07:17:15;;;;;;;1.88;0.93;;;;;;;28.36;29.00;99773.56;5106799;28;20031;-68
2022/07/11 07:19:40;;;;;;;2.63;1.20;;;;;;;28.15;29.02;99771.97;5105918;28;20114;-69
2022/07/11 07:22:06;;;;;;;4.60;1.23;;;;;;;28.13;28.83;99774.16;5105689;28;20031;-69
2022/07/11 07:24:32;;;;;;;5.72;1.10;;;;;;;27.84;28.62;99782.91;5106537;28;20036;-68
2022/07/11 07:26:58;;;;;;;2.80;1.00;;;;;;;28.01;29.10;99774.44;5105688;28;20039;-68
2022/07/11 07:29:25;;;;;;;2.60;1.33;;;;;;;28.15;28.71;99767.34;5104772;28;20240;-68
2022/07/11 07:31:52;;;;;;;2.45;1.17;;;;;;;28.41;28.28;99764.56;5103464;28;20027;-68
2022/07/11 07:34:18;;;;;;;3.65;1.00;;;;;;;27.96;29.35;99758.09;5105163;28;20029;-69
2022/07/11 07:36:44;;;;;;;6.45;1.00;;;;;;;28.29;29.19;99768.41;5103538;28;20031;-69
2022/07/11 07:39:10;;;;;;;7.55;1.00;;;;;;;28.70;28.45;99770.13;5104827;28;20027;-69
2022/07/11 07:41:35;;;;;;;2.25;0.90;;;;;;;28.74;27.83;99760.31;5104834;28;20060;-69
2022/07/11 07:44:01;;;;;;;4.20;1.10;;;;;;;28.89;27.46;99771.97;5104754;28;20065;-69
2022/07/11 07:46:27;;;;;;;2.05;1.20;;;;;;;28.40;28.73;99765.66;5105231;28;20035;-68
2022/07/11 07:48:53;;;;;;;2.67;1.33;;;;;;;28.55;27.51;99766.38;5104131;28;20024;-68
2022/07/11 07:51:19;;;;;;;1.45;0.90;;;;;;;29.10;26.96;99756.28;5107275;28;20386;-68
2022/07/11 07:53:44;;;;;;;5.00;1.58;;;;;;;29.28;27.66;99765.72;5102014;28;20256;-68
2022/07/11 07:56:10;;;;;;;3.03;1.45;;;;;;;29.26;27.53;99759.72;5104098;28;20027;-69
2022/07/11 07:58:36;;;;;;;4.80;1.00;;;;;;;29.41;27.84;99770.53;5105969;28;20031;-69
2022/07/11 08:03:46;;;;;;;3.58;1.42;;;;;;;29.18;27.40;99760.34;5103045;28;20089;-68
2022/07/11 08:06:11;;;;;;;3.10;0.80;;;;;;;29.12;27.30;99754.09;5103918;28;20326;-69
2022/07/11 08:08:36;;;;;;;4.72;1.00;;;;;;;29.45;27.49;99757.97;5105687;28;20027;-69
2022/07/11 08:11:02;;;;;;;3.28;0.95;;;;;;;29.58;27.08;99752.94;5105669;28;20042;-69
2022/07/11 08:13:28;;;;;;;1.92;1.00;;;;;;;29.91;27.17;99748.53;5102865;28;20019;-69
2022/07/11 08:15:54;;;;;;;5.65;0.90;;;;;;;29.71;26.99;99747.63;5105636;28;20035;-69
2022/07/11 08:18:20;;;;;;;4.38;1.10;;;;;;;29.19;27.06;99751.06;5103133;28;20259;-68
2022/07/11 08:20:45;;;;;;;5.90;1.10;;;;;;;29.55;27.79;99748.88;5104252;28;20105;-68
2022/07/11 08:23:12;;;;;;;4.47;0.70;;;;;;;29.65;27.13;99740.59;5103560;28;20244;-69
2022/07/11 08:25:38;;;;;;;1.00;1.00;;;;;;;29.68;26.89;99744.66;5106338;28;20043;-69
2022/07/11 08:28:03;;;;;;;2.22;1.00;;;;;;;29.70;26.77;99743.28;5101846;28;20069;-69
2022/07/11 08:30:29;;;;;;;1.88;1.25;;;;;;;29.28;26.39;99740.38;5104771;28;20048;-68
2022/07/11 08:32:54;;;;;;;5.68;1.00;;;;;;;29.43;27.27;99735.63;5103631;28;20378;-68
2022/07/11 08:35:20;;;;;;;3.67;1.20;;;;;;;29.81;26.61;99733.88;5101947;28;20047;-68
2022/07/11 08:37:45;;;;;;;4.47;0.95;;;;;;;29.68;26.20;99725.56;5105146;28;20040;-69
2022/07/11 08:40:11;;;;;;;3.85;1.25;;;;;;;29.54;26.34;99730.88;5102598;28;20034;-68
2022/07/11 08:42:44;;;;;;;8.13;1.15;;;;;;;30.03;24.67;99733.41;5103416;28;20348;-69
2022/07/11 08:45:16;;;;;;;2.43;0.80;;;;;;;29.75;25.20;99740.50;5104493;28;20100;-69
2022/07/11 08:47:43;;;;;;;7.63;1.20;;;;;;;29.74;26.03;99738.88;5104309;28;20438;-69
2022/07/11 08:50:10;;;;;;;4.70;0.93;;;;;;;29.94;25.36;99746.03;5104169;28;20099;-69
2022/07/11 08:52:37;;;;;;;4.93;1.33;;;;;;;29.87;25.40;99718.25;5105639;28;20103;-69
2022/07/11 08:55:06;;;;;;;2.00;0.90;;;;;;;30.18;25.41;99748.81;5103058;28;20081;-69
2022/07/11 08:57:34;;;;;;;6.45;1.40;;;;;;;29.50;25.75;99738.00;5101263;28;20081;-69
2022/07/11 09:00:00;;;;;;;6.78;1.00;;;;;;;29.94;25.37;99729.66;5103818;28;20202;-69
2022/07/11 09:02:27;;;;;;;4.70;1.30;;;;;;;29.71;24.44;99735.91;5104027;28;20054;-69
2022/07/11 09:04:52;;;;;;;3.45;0.75;;;;;;;29.88;24.51;99734.34;5102393;28;20324;-68
2022/07/11 09:07:18;;;;;;;6.25;1.30;;;;;;;29.77;23.56;99732.84;5104122;28;20020;-68
2022/07/11 09:09:44;;;;;;;2.90;1.00;;;;;;;29.97;24.26;99736.44;5105755;28;20054;-68
2022/07/11 09:12:15;;;;;;;3.05;0.93;;;;;;;30.24;24.40;99722.25;5100603;28;20059;-68
2022/07/11 09:14:46;;;;;;;6.07;1.67;;;;;;;29.78;24.94;99734.47;5104741;28;20380;-68
2022/07/11 09:17:11;;;;;;;1.20;0.80;;;;;;;29.77;25.21;99735.56;5104977;28;20023;-68
2022/07/11 09:19:39;;;;;;;5.00;1.30;;;;;;;29.85;25.35;99729.47;5103350;28;20293;-68
2022/07/11 09:25:20;;;;;;;2.88;1.10;;;;;;;30.64;25.48;99726.41;5103924;28;20043;-68
2022/07/11 09:27:49;;;;;;;3.28;1.00;;;;;;;30.50;25.00;99712.63;5105572;28;20031;-68
2022/07/11 09:30:25;;;;;;;1.73;1.20;;;;;;;30.64;25.37;99740.06;5102671;28;20253;-68
2022/07/11 09:32:59;;;;;;;5.32;1.00;;;;;;;30.71;25.01;99735.84;5102162;28;20245;-68
2022/07/11 09:35:33;;;;;;;2.72;0.77;;;;;;;30.34;24.52;99731.16;5100711;28;20048;-68
2022/07/11 09:38:01;;;;;;;2.40;0.70;;;;;;;30.25;25.18;99727.44;5124637;28;20035;-68
2022/07/11 09:40:27;;;;;;;5.03;0.85;;;;;;;30.07;25.13;99720.78;5103844;28;20044;-68
2022/07/11 09:42:54;;;;;;;4.50;1.08;;;;;;;29.84;25.43;99716.13;5104034;28;20039;-68
2022/07/11 09:45:22;;;;;;;2.22;0.80;;;;;;;29.88;24.04;99731.63;5101855;28;20043;-68
2022/07/11 09:47:49;;;;;;;2.28;0.70;;;;;;;29.44;21.05;99736.44;5109787;28;20032;-68
2022/07/11 09:50:26;;;;;;;2.42;0.70;;;;;;;29.04;21.37;99727.44;5103172;28;20028;-68
2022/07/11 09:53:13;;;;;;;3.22;0.75;;;;;;;29.13;21.91;99733.09;5103986;28;20032;-68
2022/07/11 09:55:40;;;;;;;4.53;0.77;;;;;;;29.20;22.25;99739.06;5102299;28;20104;-68
2022/07/11 09:58:07;;;;;;;2.20;0.80;;;;;;;29.24;21.92;99737.38;5102929;28;20035;-68
2022/07/11 10:00:35;;;;;;;1.88;0.80;;;;;;;29.33;21.67;99737.59;5101052;28;20039;-68
2022/07/11 10:03:01;;;;;;;4.10;0.88;;;;;;;29.47;21.43;99733.13;5102143;28;20313;-68
2022/07/11 10:05:28;;;;;;;4.18;0.77;;;;;;;29.47;20.97;99736.69;5102426;28;20042;-68
2022/07/11 10:07:55;;;;;;;2.03;0.60;;;;;;;29.43;21.08;99730.16;5104916;28;20187;-68
2022/07/11 10:10:21;;;;;;;6.00;0.98;;;;;;;29.39;19.85;99737.25;5107091;28;20035;-68
2022/07/11 10:12:47;;;;;;;3.75;0.80;;;;;;;29.56;20.59;99723.22;5107758;28;20429;-68
2022/07/11 10:15:16;;;;;;;3.08;0.70;;;;;;;29.50;20.52;99736.09;5106231;28;20023;-68
2022/07/11 10:17:48;;;;;;;4.35;1.02;;;;;;;29.60;19.93;99732.47;5104942;28;20028;-68
2022/07/11 10:20:29;;;;;;;3.30;1.00;;;;;;;29.63;19.19;99734.63;5107533;28;20040;-68
2022/07/11 10:23:06;;;;;;;4.55;0.98;;;;;;;29.61;19.31;99736.81;5108811;28;20056;-68
2022/07/11 10:25:37;;;;;;;3.90;0.60;;;;;;;29.53;19.76;99729.25;5106747;28;20028;-68
2022/07/11 10:28:25;;;;;;;2.67;0.80;;;;;;;29.27;20.25;99730.56;5104709;28;20048;-68
2022/07/11 10:30:55;;;;;;;3.95;0.82;;;;;;;29.57;19.80;99729.50;5108947;28;20111;-68
2022/07/11 10:33:21;;;;;;;8.02;1.08;;;;;;;29.18;20.18;99731.16;5105137;28;20065;-68
2022/07/11 10:35:53;;;;;;;5.68;0.82;;;;;;;29.15;19.66;99731.72;5107938;28;20480;-68
2022/07/11 10:38:19;;;;;;;6.32;1.60;;;;;;;29.15;19.96;99720.00;5103648;28;20043;-68
2022/07/11 10:40:47;;;;;;;3.15;0.68;;;;;;;29.00;20.71;99722.81;5108015;28;20138;-68
2022/07/11 10:43:30;;;;;;;7.50;1.33;;;;;;;29.22;22.15;99715.03;5104042;28;20100;-68
2022/07/11 10:45:59;;;;;;;3.85;0.82;;;;;;;29.37;21.87;99723.09;5104540;28;20028;-68
2022/07/11 10:48:28;;;;;;;1.63;0.70;;;;;;;29.33;21.95;99727.50;5105687;28;20046;-68
2022/07/11 10:51:15;;;;;;;6.25;1.30;;;;;;;29.33;21.95;99732.13;5105079;28;20260;-69
2022/07/11 10:53:46;;;;;;;3.13;1.00;;;;;;;29.34;22.06;99718.22;5107037;28;20031;-68
2022/07/11 10:56:23;;;;;;;7.10;0.82;;;;;;;29.40;22.08;99717.06;5104597;28;20099;-68
2022/07/11 10:59:16;;;;;;;2.40;0.90;;;;;;;29.43;22.84;99713.81;5106520;28;20225;-68
2022/07/11 11:02:03;;;;;;;4.70;0.90;;;;;;;29.56;21.80;99712.31;5105329;28;20032;-68
2022/07/11 11:04:44;;;;;;;5.55;1.00;;;;;;;29.62;21.99;99705.69;5104940;28;20044;-68
2022/07/11 11:07:43;;;;;;;1.63;0.75;;;;;;;29.66;21.24;99712.22;5107105;28;20070;-68
2022/07/11 11:10:17;;;;;;;2.95;0.75;;;;;;;29.64;21.80;99695.31;5105353;28;20101;-68
2022/07/11 11:13:04;;;;;;;4.05;0.93;;;;;;;29.62;21.23;99704.88;5107702;28;20032;-68
2022/07/11 11:15:53;;;;;;;7.68;1.45;;;;;;;29.58;21.42;99707.38;5106090;28;20325;-68
2022/07/11 11:18:24;;;;;;;1.98;0.70;;;;;;;29.51;22.50;99702.25;5103676;28;20036;-68
2022/07/11 11:21:02;;;;;;;9.68;0.70;;;;;;;29.76;21.60;99703.09;5104447;28;20035;-68
2022/07/11 11:23:32;;;;;;;3.33;1.02;;;;;;;29.96;21.41;99707.53;5107267;28;20036;-68
2022/07/11 11:26:19;;;;;;;4.72;1.00;;;;;;;29.38;21.35;99691.19;5104934;28;20065;-68
2022/07/11 11:28:56;;;;;;;2.90;0.90;;;;;;;29.64;22.22;99710.88;5103065;28;20042;-68
2022/07/11 11:31:22;;;;;;;2.85;0.77;;;;;;;29.72;21.87;99708.31;5103931;28;20035;-68
2022/07/11 11:33:48;;;;;;;3.17;0.88;;;;;;;29.77;21.11;99708.28;5103631;28;20028;-68
2022/07/11 11:36:17;;;;;;;1.65;0.73;;;;;;;29.72;21.79;99710.25;5104057;28;20046;-68
2022/07/11 11:38:44;;;;;;;5.07;1.02;;;;;;;29.57;21.95;99713.13;5105641;28;20020;-68
2022/07/11 11:41:13;;;;;;;2.83;0.70;;;;;;;29.48;22.05;99716.47;5103936;28;20043;-68